TTPP/POS METAR and TAF weather

Enter ICAO airport designator
Station Type Date Time Source
TTPP METAR 2023/01/30 11:00 UTC NOAA

TTPP 301100Z 00000KT 9999 VCSH FEW016 20/19 Q1014 NOSIG RMK VCSH-NE/SE QUAD


Station Type Date Time Source
TTPP Decoded METAR 2023/01/30 11:00 UTC NOAA

Piarco International Airport, Trinidad, Trinidad and Tobago (TTPP) 10-37N 061-21W 15M
Jan 30, 2023 - 06:00 AM EST / 2023.01.30 1100 UTC
Wind: Calm:0
Visibility: greater than 7 mile(s):0
Sky conditions: mostly clear
Weather: showers in the vicinity
Temperature: 68 F (20 C)
Dew Point: 66 F (19 C)
Relative Humidity: 93%
Pressure (altimeter): 29.94 in. Hg (1014 hPa)
ob: TTPP 301100Z 00000KT 9999 VCSH FEW016 20/19 Q1014 NOSIG RMK VCSH-NE/SE QUAD
cycle: 11

Station Type Date Time Source
TTPP TAF 2023/01/30 12:22 UTC NOAA

TAF TTPP 301000Z 3012/3112 VRB05KT 9999 SCT018 SCT038
FM302300 00000KT 9999 FEW016

Example: see airport list